Time;durP1;ratioP1;P1;durP2;ratioP2;P2;SDS_P1;SDS_P2;PMS_P1;PMS_P2;Temp;Humidity;BMP_temperature;BMP_pressure;BME280_temperature;BME280_humidity;BME280_pressure;Samples;Min_cycle;Max_cycle;Signal;HPM_P1;HPM_P2
2021/04/19 00:00:18;;;;;;;26.08;18.80;;;;;;;8.24;100.00;102491.59;5050322;28;20044;-68
2021/04/19 00:02:43;;;;;;;28.02;18.25;;;;;;;8.23;100.00;102498.06;5051629;28;20043;-68
2021/04/19 00:05:13;;;;;;;27.25;18.98;;;;;;;8.22;100.00;102495.53;5051296;28;20033;-67
2021/04/19 00:07:39;;;;;;;26.58;18.67;;;;;;;8.18;100.00;102495.06;5051399;28;20025;-68
2021/04/19 00:10:06;;;;;;;27.25;18.27;;;;;;;8.18;100.00;102499.69;5051362;28;20043;-66
2021/04/19 00:12:34;;;;;;;25.80;17.38;;;;;;;8.14;100.00;102489.13;5051383;28;20095;-67
2021/04/19 00:15:00;;;;;;;24.13;18.10;;;;;;;8.11;100.00;102492.25;5051378;28;20028;-69
2021/04/19 00:17:25;;;;;;;29.30;19.27;;;;;;;8.10;100.00;102498.72;5051190;28;20043;-68
2021/04/19 00:19:51;;;;;;;22.83;17.77;;;;;;;8.08;100.00;102491.75;5051276;28;20048;-66
2021/04/19 00:22:17;;;;;;;25.60;17.13;;;;;;;8.05;100.00;102495.72;5051128;28;20069;-67
2021/04/19 00:24:43;;;;;;;25.45;16.50;;;;;;;8.03;100.00;102492.31;5049931;28;20099;-67
2021/04/19 00:27:08;;;;;;;23.83;16.65;;;;;;;8.01;100.00;102483.50;5051605;28;20363;-67
2021/04/19 00:29:34;;;;;;;24.45;16.23;;;;;;;7.98;100.00;102489.28;5051087;28;20791;-68
2021/04/19 00:32:00;;;;;;;23.65;17.00;;;;;;;7.93;100.00;102482.72;5051220;28;20454;-66
2021/04/19 00:34:25;;;;;;;22.98;16.45;;;;;;;7.89;100.00;102479.53;5051462;28;20461;-67
2021/04/19 00:36:51;;;;;;;23.02;16.08;;;;;;;7.87;100.00;102487.03;5051230;28;20124;-68
2021/04/19 00:39:17;;;;;;;27.67;17.67;;;;;;;7.84;100.00;102481.97;5050770;28;20075;-68
2021/04/19 00:41:43;;;;;;;23.88;16.88;;;;;;;7.81;100.00;102476.91;5051181;28;20071;-68
2021/04/19 00:44:09;;;;;;;22.65;15.65;;;;;;;7.77;100.00;102475.56;5051007;28;20122;-67
2021/04/19 00:46:34;;;;;;;22.55;15.02;;;;;;;7.71;100.00;102482.59;5051138;28;20510;-66
2021/04/19 00:49:01;;;;;;;21.17;15.10;;;;;;;7.65;100.00;102471.59;5051168;28;20033;-68
2021/04/19 00:51:27;;;;;;;19.92;15.05;;;;;;;7.61;100.00;102473.81;5051131;28;20115;-67
2021/04/19 00:53:53;;;;;;;23.15;15.45;;;;;;;7.60;100.00;102468.56;5050929;28;20032;-67
2021/04/19 00:56:19;;;;;;;23.13;15.77;;;;;;;7.62;100.00;102471.94;5051048;28;20041;-67
2021/04/19 00:58:46;;;;;;;24.10;16.55;;;;;;;7.61;100.00;102465.66;5050897;28;20051;-68
2021/04/19 01:01:12;;;;;;;30.05;18.30;;;;;;;7.59;100.00;102466.88;5049209;28;20041;-67
2021/04/19 01:03:38;;;;;;;24.00;17.17;;;;;;;7.59;100.00;102458.72;5050860;28;20051;-67
2021/04/19 01:06:05;;;;;;;27.48;17.30;;;;;;;7.59;100.00;102461.44;5050888;28;20087;-69
2021/04/19 01:08:31;;;;;;;27.42;17.00;;;;;;;7.55;100.00;102453.66;5049677;28;20037;-67
2021/04/19 01:10:57;;;;;;;25.65;17.50;;;;;;;7.52;100.00;102451.31;5050902;28;20048;-67
2021/04/19 01:13:25;;;;;;;27.08;18.00;;;;;;;7.48;100.00;102446.44;5050816;28;20550;-66
2021/04/19 01:15:51;;;;;;;26.02;17.55;;;;;;;7.44;100.00;102447.78;5049465;28;20047;-68
2021/04/19 01:18:16;;;;;;;25.63;17.23;;;;;;;7.41;100.00;102442.72;5049339;28;20126;-68
2021/04/19 01:20:48;;;;;;;24.60;17.00;;;;;;;7.37;100.00;102441.41;5049721;28;20033;-69
2021/04/19 01:23:15;;;;;;;28.95;17.73;;;;;;;7.32;100.00;102444.69;5050855;28;20032;-68
2021/04/19 01:25:41;;;;;;;29.27;18.15;;;;;;;7.29;100.00;102439.59;5049360;28;20380;-68
2021/04/19 01:28:07;;;;;;;24.30;17.00;;;;;;;7.27;100.00;102430.75;5050721;28;20114;-67
2021/04/19 01:30:41;;;;;;;24.70;17.42;;;;;;;7.26;100.00;102432.63;5050507;28;20041;-67
2021/04/19 01:33:07;;;;;;;24.10;16.77;;;;;;;7.25;100.00;102436.38;5049193;28;20065;-64
2021/04/19 01:35:33;;;;;;;23.60;16.85;;;;;;;7.22;100.00;102433.19;5050366;28;20033;-67
2021/04/19 01:38:00;;;;;;;25.02;17.25;;;;;;;7.20;100.00;102427.94;5049260;28;20048;-68
2021/04/19 01:40:27;;;;;;;26.75;16.92;;;;;;;7.19;100.00;102425.41;5050306;28;20049;-68
2021/04/19 01:42:54;;;;;;;28.00;17.20;;;;;;;7.16;100.00;102420.34;5065532;28;20442;-67
2021/04/19 01:45:21;;;;;;;24.25;16.73;;;;;;;7.12;100.00;102417.13;5050120;28;20044;-68
2021/04/19 01:47:46;;;;;;;27.25;17.45;;;;;;;7.09;100.00;102422.06;5050261;28;20115;-68
2021/04/19 01:50:20;;;;;;;27.40;17.30;;;;;;;7.07;100.00;102418.69;5050199;28;20033;-67
2021/04/19 01:52:45;;;;;;;28.13;17.50;;;;;;;7.05;100.00;102415.31;5050475;28;20399;-67
2021/04/19 01:55:15;;;;;;;26.92;16.92;;;;;;;7.03;100.00;102417.38;5050223;28;20371;-66
2021/04/19 01:57:43;;;;;;;22.73;16.05;;;;;;;7.02;100.00;102410.25;5050032;28;20033;-65
2021/04/19 02:00:10;;;;;;;26.13;15.93;;;;;;;7.00;100.00;102412.28;5050089;28;20047;-67
2021/04/19 02:02:41;;;;;;;20.60;14.02;;;;;;;6.97;100.00;102407.22;5050097;28;20048;-69
2021/04/19 02:05:17;;;;;;;19.98;14.07;;;;;;;6.92;100.00;102399.59;5050041;28;20530;-67
2021/04/19 02:07:58;;;;;;;21.92;14.52;;;;;;;6.89;100.00;102400.81;5048747;28;20076;-68
2021/04/19 02:10:33;;;;;;;20.92;14.05;;;;;;;6.87;100.00;102396.59;5050261;28;20033;-66
2021/04/19 02:13:14;;;;;;;;;;;;;;;6.85;100.00;102404.91;5051351;28;20206;-68
2021/04/19 02:16:06;;;;;;;17.90;13.63;;;;;;;6.79;100.00;102394.78;5053506;28;19963;-67
2021/04/19 02:19:10;;;;;;;20.45;14.07;;;;;;;6.76;100.00;102395.09;5053959;28;20392;-68
2021/04/19 02:21:43;;;;;;;19.80;14.18;;;;;;;6.72;100.00;102396.50;5054046;28;20411;-67
2021/04/19 02:24:16;;;;;;;17.17;13.18;;;;;;;6.70;100.00;102395.84;5053359;28;20044;-68
2021/04/19 02:26:56;;;;;;;21.15;13.73;;;;;;;6.67;100.00;102396.19;5053492;28;20032;-68
2021/04/19 02:29:39;;;;;;;19.10;13.05;;;;;;;6.63;100.00;102397.59;5053455;28;20108;-67
2021/04/19 02:32:10;;;;;;;18.45;13.60;;;;;;;6.62;100.00;102404.03;5053630;28;20040;-66
2021/04/19 02:34:36;;;;;;;24.70;13.93;;;;;;;6.59;100.00;102398.94;5053175;28;20352;-68
2021/04/19 02:37:03;;;;;;;22.92;15.07;;;;;;;6.59;100.00;102398.94;5053176;28;20033;-69
2021/04/19 02:39:32;;;;;;;24.27;15.13;;;;;;;6.60;100.00;102406.09;5052709;28;20045;-68
2021/04/19 02:42:00;;;;;;;26.52;15.48;;;;;;;6.59;100.00;102405.22;5053158;28;20044;-67
2021/04/19 02:44:27;;;;;;;19.48;14.15;;;;;;;6.59;100.00;102399.78;5053042;28;20043;-67
2021/04/19 02:46:54;;;;;;;23.38;15.25;;;;;;;6.57;100.00;102395.56;5053193;28;20067;-68
2021/04/19 02:49:24;;;;;;;25.00;15.88;;;;;;;6.58;100.00;102397.25;5052962;28;20037;-68
2021/04/19 02:51:52;;;;;;;27.25;15.52;;;;;;;6.55;100.00;102392.19;5052885;28;20037;-66
2021/04/19 02:54:21;;;;;;;23.73;15.07;;;;;;;6.54;100.00;102387.78;5052755;28;20064;-68
2021/04/19 02:56:48;;;;;;;24.60;14.43;;;;;;;6.53;100.00;102388.81;5052808;28;20122;-69
2021/04/19 02:59:17;;;;;;;24.80;15.55;;;;;;;6.51;100.00;102390.84;5052771;28;20040;-67
2021/04/19 03:01:48;;;;;;;26.42;15.80;;;;;;;6.48;100.00;102383.06;5052895;28;20043;-67
2021/04/19 03:04:17;;;;;;;24.10;16.70;;;;;;;6.45;100.00;102386.16;5052573;28;20033;-71
2021/04/19 03:06:47;;;;;;;25.40;16.58;;;;;;;6.45;100.00;102386.16;5052626;28;20056;-67
2021/04/19 03:09:16;;;;;;;25.55;16.25;;;;;;;6.45;100.00;102391.56;5052794;28;20104;-67
2021/04/19 03:11:50;;;;;;;24.90;16.02;;;;;;;6.47;100.00;102389.53;5052557;28;20044;-67
2021/04/19 03:14:17;;;;;;;24.90;15.90;;;;;;;6.46;100.00;102387.84;5052456;28;20044;-66
2021/04/19 03:16:49;;;;;;;27.00;16.63;;;;;;;6.45;100.00;102387.00;5052517;28;20033;-69
2021/04/19 03:19:21;;;;;;;24.60;16.23;;;;;;;6.43;100.00;102389.03;5052445;28;20033;-68
2021/04/19 03:21:49;;;;;;;27.65;16.27;;;;;;;6.41;100.00;102379.34;5052588;28;20398;-70
2021/04/19 03:24:16;;;;;;;24.38;17.17;;;;;;;6.39;100.00;102378.69;5050497;28;20518;-69
2021/04/19 03:26:43;;;;;;;22.85;16.38;;;;;;;6.34;100.00;102374.66;5052235;28;20041;-68
2021/04/19 03:29:10;;;;;;;23.88;16.25;;;;;;;6.30;100.00;102373.31;5052150;28;20033;-68
2021/04/19 03:31:42;;;;;;;22.80;15.32;;;;;;;6.27;100.00;102368.25;5052266;28;20494;-68
2021/04/19 03:34:17;;;;;;;25.02;16.45;;;;;;;6.25;100.00;102361.31;5052139;28;20043;-66
2021/04/19 03:36:45;;;;;;;24.33;16.85;;;;;;;6.22;100.00;102362.47;5052061;28;20028;-67
2021/04/19 03:39:12;;;;;;;21.98;15.75;;;;;;;6.21;100.00;102368.94;5051829;28;20041;-66
2021/04/19 03:41:46;;;;;;;24.00;16.25;;;;;;;6.18;100.00;102366.56;5051956;28;20044;-68
2021/04/19 03:44:15;;;;;;;27.20;16.50;;;;;;;6.18;100.00;102363.88;5052076;28;20048;-69
2021/04/19 03:46:41;;;;;;;25.13;16.55;;;;;;;6.16;100.00;102359.63;5051852;28;20029;-69
2021/04/19 03:49:12;;;;;;;24.55;15.80;;;;;;;6.15;100.00;102361.50;5051905;28;20040;-67
2021/04/19 03:51:40;;;;;;;23.38;15.75;;;;;;;6.13;100.00;102358.13;5051816;28;20550;-66
2021/04/19 03:54:08;;;;;;;25.38;17.50;;;;;;;6.12;100.00;102356.44;5051631;28;20037;-68
2021/04/19 03:56:36;;;;;;;25.35;16.75;;;;;;;6.11;100.00;102357.47;5051485;28;20391;-68
2021/04/19 03:59:09;;;;;;;25.00;17.58;;;;;;;6.11;100.00;102351.19;5051404;28;20033;-68
2021/04/19 04:01:37;;;;;;;26.23;17.20;;;;;;;6.12;100.00;102359.16;5051634;28;20033;-70
2021/04/19 04:04:03;;;;;;;25.02;16.73;;;;;;;6.12;100.00;102353.72;5051573;28;20459;-69
2021/04/19 04:06:30;;;;;;;26.30;17.05;;;;;;;6.11;100.00;102352.03;5050308;28;20587;-67
2021/04/19 04:08:57;;;;;;;25.20;16.58;;;;;;;6.11;100.00;102357.47;5051405;28;20040;-67
2021/04/19 04:11:25;;;;;;;28.48;18.27;;;;;;;6.09;100.00;102354.09;5051329;28;20029;-68
2021/04/19 04:13:51;;;;;;;26.55;18.90;;;;;;;6.09;100.00;102356.78;5051260;28;20116;-67
2021/04/19 04:16:17;;;;;;;27.48;18.58;;;;;;;6.09;100.00;102359.50;5051307;28;20124;-68
2021/04/19 04:18:43;;;;;;;27.05;18.63;;;;;;;6.09;100.00;102354.09;5051159;28;20048;-67
2021/04/19 04:21:10;;;;;;;27.65;19.23;;;;;;;6.08;100.00;102357.81;5050100;28;20467;-69
2021/04/19 04:23:36;;;;;;;27.25;18.20;;;;;;;6.08;100.00;102354.25;5051116;28;20112;-66
2021/04/19 04:26:03;;;;;;;28.00;18.10;;;;;;;6.06;100.00;102354.41;5051131;28;20086;-68
2021/04/19 04:28:33;;;;;;;26.85;18.13;;;;;;;6.04;100.00;102354.59;5051264;28;20118;-67
2021/04/19 04:30:59;;;;;;;27.95;17.85;;;;;;;6.03;100.00;102352.06;5051111;28;20190;-68
2021/04/19 04:33:24;;;;;;;30.25;19.15;;;;;;;6.01;100.00;102352.22;5050973;28;20543;-68
2021/04/19 04:35:50;;;;;;;24.50;17.35;;;;;;;6.00;100.00;102344.28;5050249;28;20099;-68
2021/04/19 04:38:16;;;;;;;28.80;17.95;;;;;;;5.98;100.00;102344.44;5050987;28;20403;-68
2021/04/19 04:40:43;;;;;;;27.13;17.25;;;;;;;5.96;100.00;102343.78;5050916;28;20149;-67
2021/04/19 04:43:08;;;;;;;28.83;17.55;;;;;;;5.94;100.00;102344.97;5050883;28;20368;-67
2021/04/19 04:45:35;;;;;;;30.10;18.15;;;;;;;5.91;100.00;102339.91;5050776;28;20029;-66
2021/04/19 04:48:53;;;;;;;29.38;17.88;;;;;;;5.85;100.00;102335.13;5050892;28;20487;-68
2021/04/19 04:51:22;;;;;;;27.98;17.02;;;;;;;5.83;100.00;102343.44;5042060;28;20049;-69
2021/04/19 04:53:57;;;;;;;27.80;18.08;;;;;;;5.79;100.00;102343.97;5050739;28;20055;-68
2021/04/19 04:56:26;;;;;;;27.13;17.48;;;;;;;5.77;100.00;102332.47;5050836;28;20051;-66
2021/04/19 04:58:55;;;;;;;26.05;17.15;;;;;;;5.73;100.00;102349.09;5050676;28;20041;-67
2021/04/19 05:01:22;;;;;;;24.83;17.48;;;;;;;5.71;100.00;102344.81;5050770;28;20039;-66
2021/04/19 05:03:49;;;;;;;31.70;19.48;;;;;;;5.69;100.00;102350.41;5049150;28;20044;-69
2021/04/19 05:06:16;;;;;;;25.35;17.70;;;;;;;5.68;100.00;102346.03;5050733;28;20041;-67
2021/04/19 05:08:43;;;;;;;27.63;17.73;;;;;;;5.68;100.00;102346.03;5049518;28;20064;-68
2021/04/19 05:11:10;;;;;;;28.35;18.13;;;;;;;5.67;100.00;102355.19;5049454;28;20083;-69
2021/04/19 05:13:36;;;;;;;28.95;17.63;;;;;;;5.67;100.00;102357.03;5050667;28;20059;-69
2021/04/19 05:16:02;;;;;;;24.80;17.27;;;;;;;5.62;100.00;102357.56;5050775;28;20112;-67
2021/04/19 05:18:28;;;;;;;25.48;17.60;;;;;;;5.61;100.00;102358.59;5050595;28;20518;-68
2021/04/19 05:20:55;;;;;;;28.58;17.73;;;;;;;5.59;100.00;102352.50;5050741;28;20041;-66
2021/04/19 05:23:20;;;;;;;29.67;18.73;;;;;;;5.59;100.00;102352.50;5050729;28;20380;-70
2021/04/19 05:25:47;;;;;;;30.38;18.25;;;;;;;5.57;100.00;102356.41;5050742;28;20037;-66
2021/04/19 05:28:14;;;;;;;27.02;17.48;;;;;;;5.56;100.00;102358.25;5050747;28;20555;-69
2021/04/19 05:30:41;;;;;;;26.13;17.65;;;;;;;5.57;100.00;102348.28;5050793;28;20048;-68
2021/04/19 05:33:07;;;;;;;29.38;18.45;;;;;;;5.55;100.00;102351.13;5050633;28;20436;-65
2021/04/19 05:35:34;;;;;;;27.35;17.60;;;;;;;5.55;100.00;102345.72;5050636;28;20098;-67
2021/04/19 05:38:02;;;;;;;29.35;16.80;;;;;;;5.52;100.00;102351.47;5050835;28;20376;-68
2021/04/19 05:40:30;;;;;;;27.10;17.52;;;;;;;5.52;100.00;102347.91;5050474;28;20554;-68
2021/04/19 05:42:57;;;;;;;28.55;18.60;;;;;;;5.49;100.00;102346.41;5050694;28;20045;-69
2021/04/19 05:45:23;;;;;;;30.02;19.10;;;;;;;5.49;100.00;102346.41;5050404;28;20045;-69
2021/04/19 05:47:50;;;;;;;27.08;18.35;;;;;;;5.51;100.00;102348.94;5052710;28;20067;-67
2021/04/19 05:50:17;;;;;;;29.83;16.92;;;;;;;5.50;100.00;102348.09;5069577;28;20041;-67
2021/04/19 05:52:49;;;;;;;26.48;17.73;;;;;;;5.49;100.00;102346.41;5054168;28;20037;-67
2021/04/19 05:55:16;;;;;;;26.10;17.73;;;;;;;5.50;100.00;102353.50;5054003;28;20041;-70
2021/04/19 05:58:19;;;;;;;25.33;17.25;;;;;;;5.52;100.00;102348.75;5054025;28;20483;-67
2021/04/19 06:00:54;;;;;;;29.15;18.25;;;;;;;5.55;100.00;102355.69;5053993;28;20041;-69
2021/04/19 06:03:37;;;;;;;29.42;17.33;;;;;;;5.57;100.00;102354.53;5053899;28;20033;-68
2021/04/19 06:06:15;;;;;;;28.90;18.05;;;;;;;5.60;100.00;102356.91;5053872;28;20094;-68
2021/04/19 06:09:10;;;;;;;27.45;18.30;;;;;;;5.62;100.00;102351.31;5053726;28;20033;-68
2021/04/19 06:11:35;;;;;;;25.03;17.77;;;;;;;5.65;100.00;102351.78;5053780;28;20549;-67
2021/04/19 06:14:03;;;;;;;30.55;18.80;;;;;;;5.68;100.00;102354.16;5053647;28;20056;-70
2021/04/19 06:16:36;;;;;;;26.80;17.48;;;;;;;5.73;100.00;102354.50;5053599;28;20465;-68
2021/04/19 06:19:04;;;;;;;27.35;18.30;;;;;;;5.78;100.00;102356.69;5053553;28;20452;-68
2021/04/19 06:21:31;;;;;;;31.15;19.55;;;;;;;5.83;100.00;102364.28;5053602;28;20033;-67
2021/04/19 06:23:58;;;;;;;31.67;19.23;;;;;;;5.86;100.00;102358.50;5053428;28;20037;-69
2021/04/19 06:26:23;;;;;;;29.45;18.48;;;;;;;5.89;100.00;102355.44;5052147;28;20095;-68
2021/04/19 06:28:49;;;;;;;31.08;19.20;;;;;;;5.93;100.00;102359.56;5053238;28;20037;-68
2021/04/19 06:31:17;;;;;;;27.88;18.80;;;;;;;5.98;100.00;102351.75;5053484;28;20484;-66
2021/04/19 06:33:59;;;;;;;30.83;17.67;;;;;;;6.06;100.00;102354.41;5053323;28;20067;-69
2021/04/19 06:36:24;;;;;;;27.83;17.20;;;;;;;6.15;100.00;102357.94;5053456;28;20153;-69
2021/04/19 06:38:50;;;;;;;25.90;16.98;;;;;;;6.22;100.00;102359.75;5052943;28;20229;-68
2021/04/19 06:41:16;;;;;;;27.33;17.80;;;;;;;6.31;100.00;102358.72;5051814;28;20147;-69
2021/04/19 06:43:42;;;;;;;28.05;17.35;;;;;;;6.41;100.00;102357.63;5052910;28;20045;-68
2021/04/19 06:46:09;;;;;;;26.63;17.00;;;;;;;6.50;100.00;102362.03;5052987;28;20056;-67
2021/04/19 06:48:36;;;;;;;27.13;17.30;;;;;;;6.59;100.00;102361.78;5053047;28;20124;-69
2021/04/19 06:51:03;;;;;;;26.90;17.90;;;;;;;6.69;100.00;102361.56;5052987;28;20048;-67
2021/04/19 06:53:28;;;;;;;28.30;18.35;;;;;;;6.78;100.00;102355.06;5052910;28;20108;-67
2021/04/19 06:55:54;;;;;;;27.98;17.65;;;;;;;6.87;100.00;102356.69;5052746;28;20132;-68
2021/04/19 06:58:21;;;;;;;27.90;17.05;;;;;;;6.95;100.00;102361.22;5052072;28;20403;-70
2021/04/19 07:00:48;;;;;;;28.45;15.93;;;;;;;7.03;100.00;102357.59;5052523;28;20036;-66
2021/04/19 07:03:20;;;;;;;27.52;16.13;;;;;;;7.13;100.00;102358.22;5052779;28;20086;-67
2021/04/19 07:05:49;;;;;;;25.75;15.18;;;;;;;7.20;100.00;102359.16;5052618;28;20062;-66
2021/04/19 07:08:50;;;;;;;25.10;16.45;;;;;;;7.28;100.00;102350.91;5052493;28;20041;-66
2021/04/19 07:11:20;;;;;;;25.08;16.88;;;;;;;7.41;100.00;102355.72;5052592;28;20033;-67
2021/04/19 07:13:47;;;;;;;28.08;16.48;;;;;;;7.49;100.00;102353.81;5052454;28;20128;-67
2021/04/19 07:16:13;;;;;;;29.67;17.10;;;;;;;7.57;100.00;102350.97;5050955;28;20092;-69
2021/04/19 07:18:39;;;;;;;25.92;16.40;;;;;;;7.67;100.00;102350.72;5052290;28;20033;-66
2021/04/19 07:21:10;;;;;;;24.88;15.15;;;;;;;7.77;100.00;102345.00;5052532;28;20045;-67
2021/04/19 07:23:36;;;;;;;28.17;15.02;;;;;;;7.90;100.00;102345.19;5052232;28;20044;-68
2021/04/19 07:26:06;;;;;;;23.58;12.93;;;;;;;7.99;100.00;102341.38;5052434;28;20033;-68
2021/04/19 07:28:37;;;;;;;22.67;14.40;;;;;;;8.11;100.00;102347.16;5052279;28;20041;-68
2021/04/19 07:31:05;;;;;;;25.27;12.70;;;;;;;8.24;100.00;102341.03;5052197;28;20051;-68
2021/04/19 07:33:34;;;;;;;32.05;14.18;;;;;;;8.36;100.00;102342.28;5052077;28;20033;-68
2021/04/19 07:36:18;;;;;;;24.55;13.18;;;;;;;8.50;100.00;102338.66;5052118;28;20041;-68
2021/04/19 07:38:45;;;;;;;23.15;13.73;;;;;;;8.64;100.00;102343.22;5051706;28;20036;-67
2021/04/19 07:41:11;;;;;;;25.92;13.50;;;;;;;8.82;100.00;102333.78;5052505;28;20040;-67
2021/04/19 07:43:39;;;;;;;26.27;15.35;;;;;;;9.04;100.00;102332.75;5051877;28;20049;-69
2021/04/19 07:46:18;;;;;;;29.58;14.50;;;;;;;9.14;100.00;102338.69;5051903;28;20056;-67
2021/04/19 07:48:52;;;;;;;29.48;15.45;;;;;;;9.29;100.00;102336.72;5061807;28;20506;-66
2021/04/19 07:51:33;;;;;;;27.13;13.85;;;;;;;9.42;100.00;102329.72;5050805;28;20037;-66
2021/04/19 07:54:11;;;;;;;25.08;14.73;;;;;;;9.55;100.00;102324.38;5031533;28;20037;-66
2021/04/19 07:56:41;;;;;;;29.23;15.18;;;;;;;9.68;100.00;102330.72;5047863;28;20123;-67
2021/04/19 07:59:24;;;;;;;25.45;15.15;;;;;;;9.83;100.00;102333.34;5036910;28;20029;-67
2021/04/19 08:02:07;;;;;;;29.38;16.60;;;;;;;10.00;100.00;102316.63;5042245;28;20536;-66
2021/04/19 08:04:35;;;;;;;32.72;18.40;;;;;;;10.14;100.00;102319.22;5033579;28;20060;-63
2021/04/19 08:07:01;;;;;;;27.73;18.70;;;;;;;10.27;100.00;102324.78;5039338;28;20037;-64
2021/04/19 08:09:29;;;;;;;24.40;16.17;;;;;;;10.41;100.00;102319.34;5046639;28;20552;-66
2021/04/19 08:11:58;;;;;;;30.65;19.05;;;;;;;10.54;100.00;102327.59;5045191;28;20060;-64
2021/04/19 08:14:30;;;;;;;34.35;21.52;;;;;;;10.68;100.00;102325.75;5049479;28;20052;-66
2021/04/19 08:17:10;;;;;;;36.75;22.50;;;;;;;10.80;100.00;102326.84;5046584;28;20036;-63
2021/04/19 08:19:41;;;;;;;29.75;18.77;;;;;;;10.91;100.00;102322.63;5032618;28;20446;-64
2021/04/19 08:22:16;;;;;;;25.42;14.40;;;;;;;11.03;100.00;102319.06;5050541;28;20037;-67
2021/04/19 08:24:43;;;;;;;25.42;17.27;;;;;;;11.09;100.00;102320.97;5051104;28;20059;-65
2021/04/19 08:27:18;;;;;;;24.98;15.63;;;;;;;11.16;100.00;102313.63;5050157;28;20025;-63
2021/04/19 08:29:46;;;;;;;21.52;14.43;;;;;;;11.23;100.00;102310.03;5050665;28;20036;-63
2021/04/19 08:32:22;;;;;;;27.25;15.45;;;;;;;11.27;100.00;102314.03;5050844;28;20483;-63
2021/04/19 08:34:49;;;;;;;25.58;15.80;;;;;;;11.30;100.00;102319.09;5050846;28;20437;-63
2021/04/19 08:37:21;;;;;;;23.70;15.38;;;;;;;11.34;100.00;102314.88;5048799;28;20040;-65
2021/04/19 08:39:48;;;;;;;21.25;14.90;;;;;;;11.40;100.00;102314.03;5050301;28;20057;-62
2021/04/19 08:42:14;;;;;;;22.48;13.60;;;;;;;11.43;100.00;102313.59;5050880;28;20041;-65
2021/04/19 08:44:41;;;;;;;27.77;12.23;;;;;;;11.49;100.00;102312.78;5049868;28;20029;-67
2021/04/19 08:47:09;;;;;;;18.80;12.18;;;;;;;11.51;100.00;102318.88;5050346;28;20120;-67
2021/04/19 08:49:34;;;;;;;18.30;12.88;;;;;;;11.54;100.00;102310.22;5050485;28;20051;-63
2021/04/19 08:52:01;;;;;;;21.50;12.90;;;;;;;11.61;100.00;102310.22;5050107;28;20475;-66
2021/04/19 08:54:27;;;;;;;19.67;11.18;;;;;;;11.69;100.00;102312.75;5050338;28;20055;-67
2021/04/19 08:56:54;;;;;;;18.92;11.38;;;;;;;11.76;100.00;102308.91;5049923;28;20103;-66
2021/04/19 08:59:24;;;;;;;15.18;9.95;;;;;;;11.81;100.00;102305.59;5050591;28;20041;-66
2021/04/19 09:01:52;;;;;;;17.85;11.23;;;;;;;11.84;100.00;102296.94;5049217;28;20040;-65
2021/04/19 09:04:22;;;;;;;19.52;9.95;;;;;;;11.89;100.00;102307.25;5050354;28;20033;-65
2021/04/19 09:06:51;;;;;;;18.27;10.13;;;;;;;11.92;100.00;102301.31;5049903;28;20065;-65
2021/04/19 09:09:50;;;;;;;14.68;10.18;;;;;;;11.97;100.00;102301.50;5050452;28;20040;-62
2021/04/19 09:12:15;;;;;;;17.98;11.73;;;;;;;12.01;100.00;102294.56;5067239;28;20052;-68
2021/04/19 09:14:45;;;;;;;15.30;10.13;;;;;;;12.04;100.00;102299.59;5048645;28;20112;-67
2021/04/19 09:17:23;;;;;;;21.38;11.68;;;;;;;12.08;100.00;102298.94;5044470;28;20049;-65
2021/04/19 09:19:56;;;;;;;17.48;10.43;;;;;;;12.15;100.00;102290.72;5038320;28;20063;-66
2021/04/19 09:22:23;;;;;;;15.35;10.40;;;;;;;12.25;100.00;102302.03;5051864;28;20029;-66
2021/04/19 09:25:11;;;;;;;13.88;10.48;;;;;;;12.32;100.00;102300.13;5053645;28;20115;-66
2021/04/19 09:27:43;;;;;;;14.77;10.10;;;;;;;12.38;100.00;102292.94;5051884;28;20108;-66
2021/04/19 09:30:27;;;;;;;13.50;9.07;;;;;;;12.47;100.00;102298.97;5051412;28;20040;-65
2021/04/19 09:33:02;;;;;;;12.13;9.77;;;;;;;12.56;100.00;102298.53;5054315;28;20067;-65
2021/04/19 09:35:48;;;;;;;13.88;8.95;;;;;;;12.61;100.00;102301.44;5054270;28;20056;-65
2021/04/19 09:38:31;;;;;;;15.93;9.73;;;;;;;12.67;100.00;102305.22;5054301;28;20040;-65
2021/04/19 09:41:07;;;;;;;12.60;9.13;;;;;;;12.74;100.00;102300.50;5054241;28;20072;-65
2021/04/19 09:43:36;;;;;;;14.98;9.20;;;;;;;12.77;100.00;102300.06;5053039;28;20467;-65
2021/04/19 09:46:03;;;;;;;12.93;9.05;;;;;;;12.77;100.00;102297.31;5054165;28;20505;-65
2021/04/19 09:48:30;;;;;;;13.73;9.13;;;;;;;12.80;100.00;102293.28;5054170;28;20486;-65
2021/04/19 09:51:13;;;;;;;11.75;7.75;;;;;;;12.83;100.00;102312.03;5054072;28;20029;-65
2021/04/19 09:54:02;;;;;;;14.20;7.28;;;;;;;12.85;100.00;102308.03;5053995;28;20048;-65
2021/04/19 09:56:41;;;;;;;11.70;7.05;;;;;;;12.79;100.00;102305.31;5054379;28;20063;-65
2021/04/19 09:59:10;;;;;;;9.52;7.25;;;;;;;12.84;100.00;102298.13;5052570;28;20122;-65
2021/04/19 10:01:37;;;;;;;11.95;7.20;;;;;;;12.87;100.00;102305.91;5043254;28;20391;-65
2021/04/19 10:04:04;;;;;;;10.50;6.68;;;;;;;12.90;100.00;102310.94;5041649;28;20167;-65
2021/04/19 10:06:45;;;;;;;9.93;6.20;;;;;;;12.94;100.00;102306.69;5033434;28;20048;-66
2021/04/19 10:09:13;;;;;;;10.85;5.93;;;;;;;13.04;100.00;102302.63;5031893;28;20522;-67
2021/04/19 10:11:42;;;;;;;11.00;6.63;;;;;;;13.07;100.00;102304.94;5031925;28;20123;-66
2021/04/19 10:14:16;;;;;;;8.25;6.15;;;;;;;13.10;100.00;102309.97;5033088;28;20037;-65
2021/04/19 10:16:50;;;;;;;9.70;5.88;;;;;;;13.15;100.00;102301.88;5033100;28;20392;-66
2021/04/19 10:19:29;;;;;;;9.27;5.63;;;;;;;13.24;100.00;102308.81;5052231;28;20025;-65
2021/04/19 10:22:21;;;;;;;9.15;4.63;;;;;;;13.31;100.00;102301.38;5053099;28;20636;-66
2021/04/19 10:24:56;;;;;;;7.50;4.88;;;;;;;13.39;100.00;102309.34;5053823;28;20131;-66
2021/04/19 10:27:33;;;;;;;8.10;5.47;;;;;;;13.43;100.00;102305.06;5051224;28;20037;-65
2021/04/19 10:30:16;;;;;;;8.05;4.25;;;;;;;13.49;100.00;102304.16;5053348;28;20056;-67
2021/04/19 10:32:46;;;;;;;13.85;5.53;;;;;;;13.56;100.00;102298.59;5052635;28;20044;-65
2021/04/19 10:35:41;;;;;;;7.82;4.60;;;;;;;13.62;100.00;102299.59;5051559;28;20083;-65
2021/04/19 10:38:08;;;;;;;6.68;3.67;;;;;;;13.65;100.00;102296.41;5052748;28;20033;-66
2021/04/19 10:40:34;;;;;;;5.07;3.90;;;;;;;13.73;100.00;102290.63;5052392;28;20060;-66
2021/04/19 10:43:11;;;;;;;4.93;3.20;;;;;;;13.86;100.00;102296.78;5051559;28;20044;-66
2021/04/19 10:45:38;;;;;;;7.22;2.78;;;;;;;13.94;100.00;102286.56;5052990;28;20102;-66
2021/04/19 10:48:24;;;;;;;6.43;2.70;;;;;;;14.03;100.00;102291.53;5053049;28;20052;-66
2021/04/19 10:50:52;;;;;;;4.93;2.75;;;;;;;14.23;100.00;102287.69;5052952;28;20044;-66
2021/04/19 10:53:38;;;;;;;9.82;2.47;;;;;;;14.16;100.00;102277.63;5052744;28;20041;-66
2021/04/19 10:56:08;;;;;;;6.43;2.40;;;;;;;14.06;100.00;102282.84;5053277;28;20131;-65
2021/04/19 10:58:36;;;;;;;4.32;1.98;;;;;;;13.94;99.77;102284.66;5052661;28;20078;-66
2021/04/19 11:01:04;;;;;;;8.05;2.00;;;;;;;13.97;100.00;102284.22;5052867;28;20123;-65
2021/04/19 11:03:36;;;;;;;9.15;1.70;;;;;;;13.92;100.00;102281.31;5052621;28;20398;-66
2021/04/19 11:06:05;;;;;;;5.57;1.70;;;;;;;13.88;100.00;102282.81;5052713;28;20123;-66
2021/04/19 11:08:46;;;;;;;5.82;2.25;;;;;;;13.78;100.00;102282.53;5052611;28;20040;-66
2021/04/19 11:11:28;;;;;;;3.20;2.17;;;;;;;13.72;100.00;102280.72;5052805;28;20040;-66
2021/04/19 11:14:23;;;;;;;6.32;1.95;;;;;;;13.62;100.00;102277.63;5052473;28;20051;-65
2021/04/19 11:16:56;;;;;;;7.30;2.08;;;;;;;13.53;100.00;102272.44;5052737;28;20368;-67
2021/04/19 11:19:36;;;;;;;6.32;2.47;;;;;;;13.55;100.00;102270.31;5052364;28;20033;-67
2021/04/19 11:22:20;;;;;;;7.70;2.05;;;;;;;13.64;100.00;102262.59;5052386;28;20064;-66
2021/04/19 11:24:46;;;;;;;3.92;1.65;;;;;;;13.64;100.00;102259.03;5052578;28;20091;-66